sensor_id;sensor_type;location;lat;lon;timestamp;P1;durP1;ratioP1;P2;durP2;ratioP2
65009;SDS011;51556;50.002;22.014;2022-09-02T00:00:57;8.10;;;3.90;;
65009;SDS011;51556;50.002;22.014;2022-09-02T00:03:30;6.80;;;3.70;;
65009;SDS011;51556;50.002;22.014;2022-09-02T00:05:58;8.60;;;4.40;;
65009;SDS011;51556;50.002;22.014;2022-09-02T00:08:25;9.20;;;3.80;;
65009;SDS011;51556;50.002;22.014;2022-09-02T00:10:52;10.30;;;3.30;;
65009;SDS011;51556;50.002;22.014;2022-09-02T00:13:19;9.40;;;3.30;;
65009;SDS011;51556;50.002;22.014;2022-09-02T00:15:46;9.20;;;3.80;;
65009;SDS011;51556;50.002;22.014;2022-09-02T00:18:13;8.40;;;3.80;;
65009;SDS011;51556;50.002;22.014;2022-09-02T00:20:40;8.40;;;3.40;;
65009;SDS011;51556;50.002;22.014;2022-09-02T00:23:08;7.30;;;3.70;;
65009;SDS011;51556;50.002;22.014;2022-09-02T00:25:34;7.50;;;3.90;;
65009;SDS011;51556;50.002;22.014;2022-09-02T00:28:01;9.40;;;3.90;;
65009;SDS011;51556;50.002;22.014;2022-09-02T00:30:27;12.90;;;4.30;;
65009;SDS011;51556;50.002;22.014;2022-09-02T00:32:53;6.90;;;3.80;;
65009;SDS011;51556;50.002;22.014;2022-09-02T00:35:19;7.80;;;3.40;;
65009;SDS011;51556;50.002;22.014;2022-09-02T00:37:45;7.20;;;3.70;;
65009;SDS011;51556;50.002;22.014;2022-09-02T00:40:11;6.80;;;3.80;;
65009;SDS011;51556;50.002;22.014;2022-09-02T00:42:38;7.50;;;3.70;;
65009;SDS011;51556;50.002;22.014;2022-09-02T00:45:05;6.40;;;3.60;;
65009;SDS011;51556;50.002;22.014;2022-09-02T00:47:32;8.20;;;3.40;;
65009;SDS011;51556;50.002;22.014;2022-09-02T00:49:58;10.70;;;4.10;;
65009;SDS011;51556;50.002;22.014;2022-09-02T00:52:28;8.80;;;3.80;;
65009;SDS011;51556;50.002;22.014;2022-09-02T00:57:27;7.20;;;3.20;;
65009;SDS011;51556;50.002;22.014;2022-09-02T01:02:54;8.00;;;3.80;;
65009;SDS011;51556;50.002;22.014;2022-09-02T01:05:27;8.50;;;3.70;;
65009;SDS011;51556;50.002;22.014;2022-09-02T01:07:56;6.80;;;3.60;;
65009;SDS011;51556;50.002;22.014;2022-09-02T01:10:27;5.60;;;3.20;;
65009;SDS011;51556;50.002;22.014;2022-09-02T01:12:56;7.30;;;3.30;;
65009;SDS011;51556;50.002;22.014;2022-09-02T01:15:23;6.20;;;3.40;;
65009;SDS011;51556;50.002;22.014;2022-09-02T01:17:50;6.40;;;3.50;;
65009;SDS011;51556;50.002;22.014;2022-09-02T01:20:19;6.60;;;3.60;;
65009;SDS011;51556;50.002;22.014;2022-09-02T01:22:48;6.90;;;3.60;;
65009;SDS011;51556;50.002;22.014;2022-09-02T01:25:17;8.40;;;3.40;;
65009;SDS011;51556;50.002;22.014;2022-09-02T01:27:46;6.60;;;3.00;;
65009;SDS011;51556;50.002;22.014;2022-09-02T01:30:14;7.90;;;4.00;;
65009;SDS011;51556;50.002;22.014;2022-09-02T01:32:44;6.40;;;3.60;;
65009;SDS011;51556;50.002;22.014;2022-09-02T01:35:09;6.40;;;3.10;;
65009;SDS011;51556;50.002;22.014;2022-09-02T01:37:37;6.80;;;3.10;;
65009;SDS011;51556;50.002;22.014;2022-09-02T01:40:07;7.70;;;2.70;;
65009;SDS011;51556;50.002;22.014;2022-09-02T01:42:35;6.80;;;3.20;;
65009;SDS011;51556;50.002;22.014;2022-09-02T01:45:02;8.30;;;3.00;;
65009;SDS011;51556;50.002;22.014;2022-09-02T01:47:28;9.00;;;3.10;;
65009;SDS011;51556;50.002;22.014;2022-09-02T01:49:55;8.40;;;3.60;;
65009;SDS011;51556;50.002;22.014;2022-09-02T01:52:21;8.60;;;3.30;;
65009;SDS011;51556;50.002;22.014;2022-09-02T01:54:48;8.40;;;3.40;;
65009;SDS011;51556;50.002;22.014;2022-09-02T01:57:15;6.40;;;3.40;;
65009;SDS011;51556;50.002;22.014;2022-09-02T01:59:41;5.90;;;3.40;;
65009;SDS011;51556;50.002;22.014;2022-09-02T02:02:10;8.10;;;3.50;;
65009;SDS011;51556;50.002;22.014;2022-09-02T02:04:37;6.30;;;3.00;;
65009;SDS011;51556;50.002;22.014;2022-09-02T02:07:02;7.40;;;3.30;;
65009;SDS011;51556;50.002;22.014;2022-09-02T02:09:28;5.90;;;3.10;;
65009;SDS011;51556;50.002;22.014;2022-09-02T02:11:55;8.50;;;3.20;;
65009;SDS011;51556;50.002;22.014;2022-09-02T02:14:21;5.40;;;2.70;;
65009;SDS011;51556;50.002;22.014;2022-09-02T02:16:47;8.30;;;3.20;;
65009;SDS011;51556;50.002;22.014;2022-09-02T02:19:13;7.40;;;3.10;;
65009;SDS011;51556;50.002;22.014;2022-09-02T02:21:39;8.00;;;3.10;;
65009;SDS011;51556;50.002;22.014;2022-09-02T02:24:05;6.30;;;3.20;;
65009;SDS011;51556;50.002;22.014;2022-09-02T02:26:32;6.10;;;3.10;;
65009;SDS011;51556;50.002;22.014;2022-09-02T02:28:57;6.60;;;3.00;;
65009;SDS011;51556;50.002;22.014;2022-09-02T02:31:23;6.20;;;2.80;;
65009;SDS011;51556;50.002;22.014;2022-09-02T02:33:49;6.70;;;2.40;;
65009;SDS011;51556;50.002;22.014;2022-09-02T02:36:15;5.40;;;3.10;;
65009;SDS011;51556;50.002;22.014;2022-09-02T02:38:41;6.40;;;2.60;;
65009;SDS011;51556;50.002;22.014;2022-09-02T02:41:08;6.70;;;2.80;;
65009;SDS011;51556;50.002;22.014;2022-09-02T02:43:34;6.40;;;3.00;;
65009;SDS011;51556;50.002;22.014;2022-09-02T02:46:00;4.70;;;2.70;;
65009;SDS011;51556;50.002;22.014;2022-09-02T02:48:26;5.20;;;2.80;;
65009;SDS011;51556;50.002;22.014;2022-09-02T02:50:51;6.30;;;3.00;;
65009;SDS011;51556;50.002;22.014;2022-09-02T02:53:17;5.60;;;3.00;;
65009;SDS011;51556;50.002;22.014;2022-09-02T02:55:43;6.50;;;3.10;;
65009;SDS011;51556;50.002;22.014;2022-09-02T02:58:09;5.20;;;2.90;;
65009;SDS011;51556;50.002;22.014;2022-09-02T03:00:34;5.40;;;3.10;;
65009;SDS011;51556;50.002;22.014;2022-09-02T03:03:05;5.00;;;2.90;;
65009;SDS011;51556;50.002;22.014;2022-09-02T03:05:33;6.30;;;2.60;;
65009;SDS011;51556;50.002;22.014;2022-09-02T03:08:02;6.80;;;2.60;;
65009;SDS011;51556;50.002;22.014;2022-09-02T03:10:30;6.90;;;2.90;;
65009;SDS011;51556;50.002;22.014;2022-09-02T03:12:58;4.50;;;3.00;;
65009;SDS011;51556;50.002;22.014;2022-09-02T03:15:24;5.90;;;2.50;;
65009;SDS011;51556;50.002;22.014;2022-09-02T03:17:51;6.10;;;2.90;;
65009;SDS011;51556;50.002;22.014;2022-09-02T03:20:17;6.00;;;2.80;;
65009;SDS011;51556;50.002;22.014;2022-09-02T03:22:44;7.30;;;2.90;;
65009;SDS011;51556;50.002;22.014;2022-09-02T03:25:12;7.10;;;2.90;;
65009;SDS011;51556;50.002;22.014;2022-09-02T03:27:39;7.40;;;3.80;;
65009;SDS011;51556;50.002;22.014;2022-09-02T03:30:07;8.40;;;3.90;;
65009;SDS011;51556;50.002;22.014;2022-09-02T03:32:35;6.40;;;3.40;;
65009;SDS011;51556;50.002;22.014;2022-09-02T03:35:01;6.60;;;3.30;;
65009;SDS011;51556;50.002;22.014;2022-09-02T03:37:28;6.00;;;3.30;;
65009;SDS011;51556;50.002;22.014;2022-09-02T03:39:54;6.40;;;3.20;;
65009;SDS011;51556;50.002;22.014;2022-09-02T03:42:19;9.10;;;4.40;;
65009;SDS011;51556;50.002;22.014;2022-09-02T03:44:45;10.50;;;5.00;;
65009;SDS011;51556;50.002;22.014;2022-09-02T03:47:10;8.00;;;4.30;;
65009;SDS011;51556;50.002;22.014;2022-09-02T03:49:38;8.00;;;4.30;;
65009;SDS011;51556;50.002;22.014;2022-09-02T03:52:03;5.40;;;3.20;;
65009;SDS011;51556;50.002;22.014;2022-09-02T03:54:29;6.80;;;3.50;;
65009;SDS011;51556;50.002;22.014;2022-09-02T03:56:54;7.70;;;3.20;;
65009;SDS011;51556;50.002;22.014;2022-09-02T03:59:20;7.60;;;3.50;;
65009;SDS011;51556;50.002;22.014;2022-09-02T04:01:45;6.70;;;3.10;;
65009;SDS011;51556;50.002;22.014;2022-09-02T04:04:11;6.20;;;2.90;;
65009;SDS011;51556;50.002;22.014;2022-09-02T04:06:37;6.10;;;3.20;;
65009;SDS011;51556;50.002;22.014;2022-09-02T04:09:03;8.10;;;3.30;;
65009;SDS011;51556;50.002;22.014;2022-09-02T04:11:30;5.80;;;3.10;;
65009;SDS011;51556;50.002;22.014;2022-09-02T04:13:56;7.70;;;3.50;;
65009;SDS011;51556;50.002;22.014;2022-09-02T04:16:23;8.20;;;3.30;;
65009;SDS011;51556;50.002;22.014;2022-09-02T04:18:53;6.70;;;3.30;;
65009;SDS011;51556;50.002;22.014;2022-09-02T04:21:21;7.30;;;3.10;;
65009;SDS011;51556;50.002;22.014;2022-09-02T04:23:48;9.30;;;3.50;;
65009;SDS011;51556;50.002;22.014;2022-09-02T04:26:14;8.70;;;3.80;;
65009;SDS011;51556;50.002;22.014;2022-09-02T04:28:41;5.60;;;3.20;;
65009;SDS011;51556;50.002;22.014;2022-09-02T04:31:08;9.20;;;3.90;;
65009;SDS011;51556;50.002;22.014;2022-09-02T04:33:37;7.00;;;3.30;;
65009;SDS011;51556;50.002;22.014;2022-09-02T04:36:06;7.40;;;3.40;;
65009;SDS011;51556;50.002;22.014;2022-09-02T04:38:54;8.00;;;3.40;;
65009;SDS011;51556;50.002;22.014;2022-09-02T04:41:22;9.60;;;3.70;;
65009;SDS011;51556;50.002;22.014;2022-09-02T04:43:51;7.50;;;3.10;;
65009;SDS011;51556;50.002;22.014;2022-09-02T04:46:19;5.50;;;3.20;;
65009;SDS011;51556;50.002;22.014;2022-09-02T04:48:45;7.40;;;3.30;;
65009;SDS011;51556;50.002;22.014;2022-09-02T04:51:12;5.00;;;2.70;;
65009;SDS011;51556;50.002;22.014;2022-09-02T04:53:40;5.80;;;2.70;;
65009;SDS011;51556;50.002;22.014;2022-09-02T04:56:08;7.00;;;3.30;;
65009;SDS011;51556;50.002;22.014;2022-09-02T04:58:36;6.50;;;2.70;;
65009;SDS011;51556;50.002;22.014;2022-09-02T05:01:06;5.20;;;2.80;;
65009;SDS011;51556;50.002;22.014;2022-09-02T05:03:34;6.60;;;3.20;;
65009;SDS011;51556;50.002;22.014;2022-09-02T05:06:01;8.70;;;2.70;;
65009;SDS011;51556;50.002;22.014;2022-09-02T05:08:29;5.90;;;2.60;;
65009;SDS011;51556;50.002;22.014;2022-09-02T05:10:55;4.90;;;2.30;;
65009;SDS011;51556;50.002;22.014;2022-09-02T05:13:20;6.00;;;2.60;;
65009;SDS011;51556;50.002;22.014;2022-09-02T05:15:54;5.90;;;2.80;;
65009;SDS011;51556;50.002;22.014;2022-09-02T05:18:28;6.60;;;3.00;;
65009;SDS011;51556;50.002;22.014;2022-09-02T05:21:04;9.00;;;2.90;;
65009;SDS011;51556;50.002;22.014;2022-09-02T05:23:30;7.80;;;3.40;;
65009;SDS011;51556;50.002;22.014;2022-09-02T05:25:56;8.10;;;3.00;;
65009;SDS011;51556;50.002;22.014;2022-09-02T05:28:21;6.60;;;3.00;;
65009;SDS011;51556;50.002;22.014;2022-09-02T05:30:47;7.00;;;3.40;;
65009;SDS011;51556;50.002;22.014;2022-09-02T05:33:12;9.00;;;3.60;;
65009;SDS011;51556;50.002;22.014;2022-09-02T05:35:39;7.50;;;3.20;;
65009;SDS011;51556;50.002;22.014;2022-09-02T05:38:08;6.10;;;3.30;;
65009;SDS011;51556;50.002;22.014;2022-09-02T05:40:35;7.90;;;3.40;;
65009;SDS011;51556;50.002;22.014;2022-09-02T05:43:02;8.00;;;3.60;;
65009;SDS011;51556;50.002;22.014;2022-09-02T05:45:28;8.20;;;3.60;;
65009;SDS011;51556;50.002;22.014;2022-09-02T05:47:54;7.40;;;3.20;;
65009;SDS011;51556;50.002;22.014;2022-09-02T05:50:19;7.30;;;3.30;;
65009;SDS011;51556;50.002;22.014;2022-09-02T05:52:48;7.20;;;3.80;;
65009;SDS011;51556;50.002;22.014;2022-09-02T05:55:16;10.90;;;3.50;;
65009;SDS011;51556;50.002;22.014;2022-09-02T05:57:41;8.10;;;3.90;;
65009;SDS011;51556;50.002;22.014;2022-09-02T06:00:09;9.00;;;4.20;;
65009;SDS011;51556;50.002;22.014;2022-09-02T06:02:35;7.30;;;3.80;;
65009;SDS011;51556;50.002;22.014;2022-09-02T06:05:00;7.80;;;3.80;;
65009;SDS011;51556;50.002;22.014;2022-09-02T06:07:26;11.60;;;4.10;;
65009;SDS011;51556;50.002;22.014;2022-09-02T06:09:51;9.10;;;4.20;;
65009;SDS011;51556;50.002;22.014;2022-09-02T06:12:18;7.60;;;3.90;;
65009;SDS011;51556;50.002;22.014;2022-09-02T06:14:45;7.30;;;3.50;;
65009;SDS011;51556;50.002;22.014;2022-09-02T06:17:12;7.00;;;3.60;;
65009;SDS011;51556;50.002;22.014;2022-09-02T06:19:38;7.90;;;3.30;;
65009;SDS011;51556;50.002;22.014;2022-09-02T06:22:04;6.30;;;3.00;;
65009;SDS011;51556;50.002;22.014;2022-09-02T06:24:30;6.80;;;3.50;;
65009;SDS011;51556;50.002;22.014;2022-09-02T06:26:56;8.70;;;3.40;;
65009;SDS011;51556;50.002;22.014;2022-09-02T06:29:23;7.10;;;2.60;;
65009;SDS011;51556;50.002;22.014;2022-09-02T06:31:55;5.40;;;2.80;;
65009;SDS011;51556;50.002;22.014;2022-09-02T06:34:23;4.60;;;2.50;;
65009;SDS011;51556;50.002;22.014;2022-09-02T06:36:51;8.60;;;2.80;;
65009;SDS011;51556;50.002;22.014;2022-09-02T06:39:18;10.10;;;3.00;;
65009;SDS011;51556;50.002;22.014;2022-09-02T06:41:45;7.60;;;2.30;;
65009;SDS011;51556;50.002;22.014;2022-09-02T06:44:13;7.80;;;2.60;;
65009;SDS011;51556;50.002;22.014;2022-09-02T06:46:41;3.30;;;2.10;;
65009;SDS011;51556;50.002;22.014;2022-09-02T06:49:12;9.50;;;2.80;;
65009;SDS011;51556;50.002;22.014;2022-09-02T06:51:41;8.10;;;3.10;;
65009;SDS011;51556;50.002;22.014;2022-09-02T06:54:13;5.20;;;2.60;;
65009;SDS011;51556;50.002;22.014;2022-09-02T06:56:41;8.60;;;2.90;;
65009;SDS011;51556;50.002;22.014;2022-09-02T06:59:19;5.50;;;2.50;;
65009;SDS011;51556;50.002;22.014;2022-09-02T07:01:46;6.60;;;2.50;;
65009;SDS011;51556;50.002;22.014;2022-09-02T07:04:13;5.80;;;2.20;;
65009;SDS011;51556;50.002;22.014;2022-09-02T07:06:57;5.00;;;2.20;;
65009;SDS011;51556;50.002;22.014;2022-09-02T07:09:24;9.10;;;2.30;;
65009;SDS011;51556;50.002;22.014;2022-09-02T07:11:55;5.60;;;1.90;;
65009;SDS011;51556;50.002;22.014;2022-09-02T07:14:23;8.50;;;3.10;;
65009;SDS011;51556;50.002;22.014;2022-09-02T07:16:50;5.90;;;2.50;;
65009;SDS011;51556;50.002;22.014;2022-09-02T07:19:17;4.90;;;1.90;;
65009;SDS011;51556;50.002;22.014;2022-09-02T07:21:44;7.30;;;2.10;;
65009;SDS011;51556;50.002;22.014;2022-09-02T07:24:10;2.30;;;1.20;;
65009;SDS011;51556;50.002;22.014;2022-09-02T07:26:37;2.40;;;1.20;;
65009;SDS011;51556;50.002;22.014;2022-09-02T07:29:04;4.20;;;1.40;;
65009;SDS011;51556;50.002;22.014;2022-09-02T07:31:34;4.20;;;2.00;;
65009;SDS011;51556;50.002;22.014;2022-09-02T07:34:01;3.00;;;1.40;;
65009;SDS011;51556;50.002;22.014;2022-09-02T07:36:28;2.50;;;1.20;;
65009;SDS011;51556;50.002;22.014;2022-09-02T07:38:54;2.40;;;1.30;;
65009;SDS011;51556;50.002;22.014;2022-09-02T07:41:20;3.30;;;1.10;;
65009;SDS011;51556;50.002;22.014;2022-09-02T07:43:47;6.60;;;1.50;;
65009;SDS011;51556;50.002;22.014;2022-09-02T07:46:12;4.10;;;1.20;;
65009;SDS011;51556;50.002;22.014;2022-09-02T07:48:39;3.30;;;1.10;;
65009;SDS011;51556;50.002;22.014;2022-09-02T07:51:06;4.50;;;1.40;;
65009;SDS011;51556;50.002;22.014;2022-09-02T07:53:32;2.10;;;1.10;;
65009;SDS011;51556;50.002;22.014;2022-09-02T07:55:59;2.80;;;1.30;;
65009;SDS011;51556;50.002;22.014;2022-09-02T07:58:25;2.70;;;1.00;;
65009;SDS011;51556;50.002;22.014;2022-09-02T08:00:52;1.20;;;0.70;;
65009;SDS011;51556;50.002;22.014;2022-09-02T08:03:21;4.10;;;1.30;;
65009;SDS011;51556;50.002;22.014;2022-09-02T08:05:48;3.10;;;1.10;;
65009;SDS011;51556;50.002;22.014;2022-09-02T08:08:14;1.60;;;0.90;;
65009;SDS011;51556;50.002;22.014;2022-09-02T08:10:44;2.30;;;1.10;;
65009;SDS011;51556;50.002;22.014;2022-09-02T08:13:11;1.80;;;0.90;;
65009;SDS011;51556;50.002;22.014;2022-09-02T08:15:37;3.70;;;1.40;;
65009;SDS011;51556;50.002;22.014;2022-09-02T08:18:03;2.80;;;1.10;;
65009;SDS011;51556;50.002;22.014;2022-09-02T08:20:31;2.60;;;0.90;;
65009;SDS011;51556;50.002;22.014;2022-09-02T08:22:56;4.30;;;1.10;;
65009;SDS011;51556;50.002;22.014;2022-09-02T08:25:22;2.10;;;0.80;;
65009;SDS011;51556;50.002;22.014;2022-09-02T08:27:48;4.20;;;1.50;;
65009;SDS011;51556;50.002;22.014;2022-09-02T08:30:14;3.10;;;1.40;;
65009;SDS011;51556;50.002;22.014;2022-09-02T08:32:40;1.40;;;0.80;;
65009;SDS011;51556;50.002;22.014;2022-09-02T08:35:07;2.50;;;0.80;;
65009;SDS011;51556;50.002;22.014;2022-09-02T08:37:34;2.00;;;1.00;;
65009;SDS011;51556;50.002;22.014;2022-09-02T08:40:01;3.40;;;1.20;;
65009;SDS011;51556;50.002;22.014;2022-09-02T08:45:07;3.90;;;1.30;;
65009;SDS011;51556;50.002;22.014;2022-09-02T08:47:37;3.50;;;1.00;;
65009;SDS011;51556;50.002;22.014;2022-09-02T08:50:12;2.20;;;1.10;;
65009;SDS011;51556;50.002;22.014;2022-09-02T08:55:28;7.80;;;0.70;;
65009;SDS011;51556;50.002;22.014;2022-09-02T08:58:16;1.80;;;0.80;;
65009;SDS011;51556;50.002;22.014;2022-09-02T09:00:50;1.50;;;0.60;;
65009;SDS011;51556;50.002;22.014;2022-09-02T09:08:58;2.20;;;0.50;;
65009;SDS011;51556;50.002;22.014;2022-09-02T09:11:38;1.00;;;0.60;;
65009;SDS011;51556;50.002;22.014;2022-09-02T09:14:38;1.40;;;0.60;;
65009;SDS011;51556;50.002;22.014;2022-09-02T09:17:30;2.00;;;0.60;;
65009;SDS011;51556;50.002;22.014;2022-09-02T09:20:04;1.10;;;0.60;;
65009;SDS011;51556;50.002;22.014;2022-09-02T09:22:36;1.00;;;0.30;;
65009;SDS011;51556;50.002;22.014;2022-09-02T09:25:14;2.40;;;0.50;;
65009;SDS011;51556;50.002;22.014;2022-09-02T09:27:40;1.70;;;0.40;;
65009;SDS011;51556;50.002;22.014;2022-09-02T09:30:09;1.30;;;0.70;;
65009;SDS011;51556;50.002;22.014;2022-09-02T09:32:39;1.40;;;0.70;;
65009;SDS011;51556;50.002;22.014;2022-09-02T09:35:15;4.70;;;0.80;;
65009;SDS011;51556;50.002;22.014;2022-09-02T09:37:46;1.70;;;0.70;;
65009;SDS011;51556;50.002;22.014;2022-09-02T09:50:44;1.70;;;0.90;;
65009;SDS011;51556;50.002;22.014;2022-09-02T09:53:21;2.50;;;0.50;;
65009;SDS011;51556;50.002;22.014;2022-09-02T09:56:01;1.30;;;0.60;;
65009;SDS011;51556;50.002;22.014;2022-09-02T09:58:34;1.30;;;0.50;;
65009;SDS011;51556;50.002;22.014;2022-09-02T10:03:50;1.30;;;0.40;;
65009;SDS011;51556;50.002;22.014;2022-09-02T10:11:27;1.40;;;0.50;;
65009;SDS011;51556;50.002;22.014;2022-09-02T10:14:09;1.30;;;0.60;;
65009;SDS011;51556;50.002;22.014;2022-09-02T10:19:47;2.60;;;0.40;;
65009;SDS011;51556;50.002;22.014;2022-09-02T10:31:23;1.70;;;0.60;;
65009;SDS011;51556;50.002;22.014;2022-09-02T10:36:36;2.90;;;1.00;;
65009;SDS011;51556;50.002;22.014;2022-09-02T10:39:28;1.60;;;0.80;;
65009;SDS011;51556;50.002;22.014;2022-09-02T10:45:59;1.50;;;1.00;;
65009;SDS011;51556;50.002;22.014;2022-09-02T10:51:27;2.30;;;1.10;;
65009;SDS011;51556;50.002;22.014;2022-09-02T10:56:30;2.00;;;1.30;;
65009;SDS011;51556;50.002;22.014;2022-09-02T10:59:01;2.90;;;0.90;;
65009;SDS011;51556;50.002;22.014;2022-09-02T11:02:17;1.90;;;1.10;;
65009;SDS011;51556;50.002;22.014;2022-09-02T11:04:43;2.30;;;1.20;;
65009;SDS011;51556;50.002;22.014;2022-09-02T11:07:19;1.90;;;1.10;;
65009;SDS011;51556;50.002;22.014;2022-09-02T11:09:52;3.60;;;1.30;;
65009;SDS011;51556;50.002;22.014;2022-09-02T11:17:51;1.90;;;1.10;;
65009;SDS011;51556;50.002;22.014;2022-09-02T11:21:05;1.70;;;1.10;;
65009;SDS011;51556;50.002;22.014;2022-09-02T11:29:37;4.60;;;1.40;;
65009;SDS011;51556;50.002;22.014;2022-09-02T11:32:19;3.70;;;1.40;;
65009;SDS011;51556;50.002;22.014;2022-09-02T11:34:54;2.30;;;1.00;;
65009;SDS011;51556;50.002;22.014;2022-09-02T11:37:44;2.40;;;0.80;;
65009;SDS011;51556;50.002;22.014;2022-09-02T11:40:35;1.50;;;0.80;;
65009;SDS011;51556;50.002;22.014;2022-09-02T11:43:19;3.40;;;1.00;;
65009;SDS011;51556;50.002;22.014;2022-09-02T11:48:57;2.70;;;1.00;;
65009;SDS011;51556;50.002;22.014;2022-09-02T11:54:04;1.70;;;0.90;;
65009;SDS011;51556;50.002;22.014;2022-09-02T11:56:37;1.40;;;0.60;;
65009;SDS011;51556;50.002;22.014;2022-09-02T11:59:06;2.00;;;0.90;;
65009;SDS011;51556;50.002;22.014;2022-09-02T12:01:34;1.30;;;0.70;;
65009;SDS011;51556;50.002;22.014;2022-09-02T12:04:04;4.20;;;1.10;;
65009;SDS011;51556;50.002;22.014;2022-09-02T12:06:36;1.30;;;0.70;;
65009;SDS011;51556;50.002;22.014;2022-09-02T12:09:40;1.50;;;0.70;;
65009;SDS011;51556;50.002;22.014;2022-09-02T12:12:41;1.80;;;0.80;;
65009;SDS011;51556;50.002;22.014;2022-09-02T12:15:02;1.10;;;0.80;;
65009;SDS011;51556;50.002;22.014;2022-09-02T12:20:05;2.50;;;1.00;;
65009;SDS011;51556;50.002;22.014;2022-09-02T12:22:34;1.70;;;0.80;;
65009;SDS011;51556;50.002;22.014;2022-09-02T12:25:05;2.80;;;0.60;;
65009;SDS011;51556;50.002;22.014;2022-09-02T12:27:49;2.30;;;0.80;;
65009;SDS011;51556;50.002;22.014;2022-09-02T12:33:30;3.60;;;0.80;;
65009;SDS011;51556;50.002;22.014;2022-09-02T12:35:58;1.70;;;0.70;;
65009;SDS011;51556;50.002;22.014;2022-09-02T12:43:34;6.50;;;0.80;;
65009;SDS011;51556;50.002;22.014;2022-09-02T12:48:57;4.70;;;1.00;;
65009;SDS011;51556;50.002;22.014;2022-09-02T12:57:04;1.10;;;0.70;;
65009;SDS011;51556;50.002;22.014;2022-09-02T12:59:31;2.00;;;0.70;;
65009;SDS011;51556;50.002;22.014;2022-09-02T13:07:54;1.80;;;0.90;;
65009;SDS011;51556;50.002;22.014;2022-09-02T13:22:10;3.80;;;0.90;;
65009;SDS011;51556;50.002;22.014;2022-09-02T13:33:07;1.80;;;0.60;;
65009;SDS011;51556;50.002;22.014;2022-09-02T13:35:36;2.40;;;1.00;;
65009;SDS011;51556;50.002;22.014;2022-09-02T13:38:03;0.90;;;0.60;;
65009;SDS011;51556;50.002;22.014;2022-09-02T13:40:33;6.90;;;0.90;;
65009;SDS011;51556;50.002;22.014;2022-09-02T13:43:01;1.80;;;0.60;;
65009;SDS011;51556;50.002;22.014;2022-09-02T13:45:29;1.90;;;0.70;;
65009;SDS011;51556;50.002;22.014;2022-09-02T13:48:00;1.10;;;0.50;;
65009;SDS011;51556;50.002;22.014;2022-09-02T13:50:30;4.40;;;0.70;;
65009;SDS011;51556;50.002;22.014;2022-09-02T13:52:59;2.80;;;0.60;;
65009;SDS011;51556;50.002;22.014;2022-09-02T13:55:28;3.40;;;0.80;;
65009;SDS011;51556;50.002;22.014;2022-09-02T13:57:59;1.50;;;0.70;;
65009;SDS011;51556;50.002;22.014;2022-09-02T14:00:38;1.90;;;0.80;;
65009;SDS011;51556;50.002;22.014;2022-09-02T14:03:06;0.90;;;0.70;;
65009;SDS011;51556;50.002;22.014;2022-09-02T14:05:32;3.60;;;0.80;;
65009;SDS011;51556;50.002;22.014;2022-09-02T14:08:00;2.80;;;0.90;;
65009;SDS011;51556;50.002;22.014;2022-09-02T14:10:29;1.40;;;0.60;;
65009;SDS011;51556;50.002;22.014;2022-09-02T14:12:57;1.90;;;0.80;;
65009;SDS011;51556;50.002;22.014;2022-09-02T14:15:29;1.10;;;0.60;;
65009;SDS011;51556;50.002;22.014;2022-09-02T14:23:22;2.60;;;0.70;;
65009;SDS011;51556;50.002;22.014;2022-09-02T14:25:53;3.00;;;0.80;;
65009;SDS011;51556;50.002;22.014;2022-09-02T14:28:30;5.60;;;0.60;;
65009;SDS011;51556;50.002;22.014;2022-09-02T14:31:00;1.80;;;0.60;;
65009;SDS011;51556;50.002;22.014;2022-09-02T14:41:11;1.60;;;0.70;;
65009;SDS011;51556;50.002;22.014;2022-09-02T14:43:43;1.70;;;0.80;;
65009;SDS011;51556;50.002;22.014;2022-09-02T14:46:22;1.50;;;0.50;;
65009;SDS011;51556;50.002;22.014;2022-09-02T14:48:58;4.00;;;0.70;;
65009;SDS011;51556;50.002;22.014;2022-09-02T14:51:48;2.20;;;0.70;;
65009;SDS011;51556;50.002;22.014;2022-09-02T14:57:04;2.90;;;0.50;;
65009;SDS011;51556;50.002;22.014;2022-09-02T14:59:44;2.10;;;0.60;;
65009;SDS011;51556;50.002;22.014;2022-09-02T15:02:20;1.80;;;0.50;;
65009;SDS011;51556;50.002;22.014;2022-09-02T15:05:04;4.90;;;0.70;;
65009;SDS011;51556;50.002;22.014;2022-09-02T15:07:32;1.40;;;0.60;;
65009;SDS011;51556;50.002;22.014;2022-09-02T15:09:59;3.80;;;0.50;;
65009;SDS011;51556;50.002;22.014;2022-09-02T15:12:30;1.40;;;0.60;;
65009;SDS011;51556;50.002;22.014;2022-09-02T15:14:58;1.60;;;0.50;;
65009;SDS011;51556;50.002;22.014;2022-09-02T15:17:24;0.80;;;0.60;;
65009;SDS011;51556;50.002;22.014;2022-09-02T15:19:50;3.70;;;0.60;;
65009;SDS011;51556;50.002;22.014;2022-09-02T15:22:16;2.20;;;0.70;;
65009;SDS011;51556;50.002;22.014;2022-09-02T15:24:43;1.90;;;0.90;;
65009;SDS011;51556;50.002;22.014;2022-09-02T15:27:09;1.60;;;0.80;;
65009;SDS011;51556;50.002;22.014;2022-09-02T15:29:35;2.10;;;0.90;;
65009;SDS011;51556;50.002;22.014;2022-09-02T15:32:01;4.50;;;1.00;;
65009;SDS011;51556;50.002;22.014;2022-09-02T15:34:28;2.60;;;0.70;;
65009;SDS011;51556;50.002;22.014;2022-09-02T15:36:54;2.30;;;0.50;;
65009;SDS011;51556;50.002;22.014;2022-09-02T15:39:21;1.60;;;0.50;;
65009;SDS011;51556;50.002;22.014;2022-09-02T15:41:48;4.80;;;1.10;;
65009;SDS011;51556;50.002;22.014;2022-09-02T15:44:17;3.40;;;1.30;;
65009;SDS011;51556;50.002;22.014;2022-09-02T15:46:42;4.80;;;1.60;;
65009;SDS011;51556;50.002;22.014;2022-09-02T15:49:10;5.90;;;1.70;;
65009;SDS011;51556;50.002;22.014;2022-09-02T15:51:38;7.80;;;2.30;;
65009;SDS011;51556;50.002;22.014;2022-09-02T15:54:04;5.10;;;2.40;;
65009;SDS011;51556;50.002;22.014;2022-09-02T15:56:32;4.40;;;2.30;;
65009;SDS011;51556;50.002;22.014;2022-09-02T15:59:04;4.80;;;1.70;;
65009;SDS011;51556;50.002;22.014;2022-09-02T16:01:35;3.30;;;1.60;;
65009;SDS011;51556;50.002;22.014;2022-09-02T16:04:04;4.90;;;1.90;;
65009;SDS011;51556;50.002;22.014;2022-09-02T16:06:30;4.20;;;1.50;;
65009;SDS011;51556;50.002;22.014;2022-09-02T16:08:57;2.70;;;1.40;;
65009;SDS011;51556;50.002;22.014;2022-09-02T16:11:23;2.30;;;1.30;;
65009;SDS011;51556;50.002;22.014;2022-09-02T16:13:49;2.80;;;1.50;;
65009;SDS011;51556;50.002;22.014;2022-09-02T16:16:15;4.80;;;1.50;;
65009;SDS011;51556;50.002;22.014;2022-09-02T16:18:41;4.30;;;1.30;;
65009;SDS011;51556;50.002;22.014;2022-09-02T16:21:09;3.80;;;1.60;;
65009;SDS011;51556;50.002;22.014;2022-09-02T16:23:36;4.00;;;1.70;;
65009;SDS011;51556;50.002;22.014;2022-09-02T16:28:37;4.00;;;1.70;;
65009;SDS011;51556;50.002;22.014;2022-09-02T16:33:31;7.20;;;1.70;;
65009;SDS011;51556;50.002;22.014;2022-09-02T16:35:57;5.80;;;1.70;;
65009;SDS011;51556;50.002;22.014;2022-09-02T16:38:22;4.60;;;2.00;;
65009;SDS011;51556;50.002;22.014;2022-09-02T16:40:49;4.20;;;2.10;;
65009;SDS011;51556;50.002;22.014;2022-09-02T16:43:15;6.10;;;1.80;;
65009;SDS011;51556;50.002;22.014;2022-09-02T16:45:41;3.70;;;1.80;;
65009;SDS011;51556;50.002;22.014;2022-09-02T16:48:06;3.30;;;1.50;;
65009;SDS011;51556;50.002;22.014;2022-09-02T16:50:32;3.40;;;1.60;;
65009;SDS011;51556;50.002;22.014;2022-09-02T16:52:57;4.00;;;1.90;;
65009;SDS011;51556;50.002;22.014;2022-09-02T16:55:23;3.10;;;1.70;;
65009;SDS011;51556;50.002;22.014;2022-09-02T16:57:48;6.10;;;2.10;;
65009;SDS011;51556;50.002;22.014;2022-09-02T17:00:17;9.30;;;2.50;;
65009;SDS011;51556;50.002;22.014;2022-09-02T17:02:42;7.50;;;2.80;;
65009;SDS011;51556;50.002;22.014;2022-09-02T17:05:10;7.70;;;3.30;;
65009;SDS011;51556;50.002;22.014;2022-09-02T17:07:41;9.80;;;3.50;;